Alliance, NE

3:27 PM MDT on July 31, 2015 (GMT -0600)
Alliance Municipal | | Change Station
CLOSE
Current Station
Airport
Location: Alliance,
Elevation: 3930 ft
Nearby Weather Stations

Elev 3930 ft 42.06 °N, 102.80 °W | Updated 5 minutes ago

Overcast
Overcast
70 °F
Feels Like 70 °F
N
24
Wind Variable Wind from East

Today
High -- | Low -- °F
--% Chance of Precip.
Yesterday
High -- | Low -- °F
Precip. -- in
5:43 AM 8:11 PM
Full, 100% visible
Pressure 30.21 in
Visibility 2.5 miles
Clouds Scattered Clouds 4400 ft
Scattered Clouds 7000 ft
Overcast 9500 ft
Dew Point 61 °F
Humidity 73%
Rainfall 0.00 in
Snow Depth Not available.
UV 3 out of 12
Pollen 6.80 out of 12
Air Quality Not available.
Flu Activity Not available.
SPECI KAIA 312122Z AUTO 08021KT 2 1/2SM VCTS +RA SCT044 SCT070 OVC095 21/16 A3021 RMK AO2 WSHFT 2105 LTG DSNT E RAB2054 P0013 T02110161

More Conditions Fewer Conditions

Pressure 30.21 in
Visibility 2.5 miles
Clouds Scattered Clouds 4400 ft
Scattered Clouds 7000 ft
Overcast 9500 ft
Dew Point 61 °F
Humidity 73%
Rainfall 0.00 in
Snow Depth Not available.
UV 3 out of 12
Pollen 6.80 out of 12
Air Quality Not available.
Flu Activity Not available.
SPECI KAIA 312122Z AUTO 08021KT 2 1/2SM VCTS +RA SCT044 SCT070 OVC095 21/16 A3021 RMK AO2 WSHFT 2105 LTG DSNT E RAB2054 P0013 T02110161

More Conditions Fewer Conditions

10-Day Weather Forecast

×

Almanac

Astronomy

Jul. 31, 2015 Rise Set
Actual Time
Civil Twilight
Nautical Twilight
Astronomical Twilight
Moon
Length of Visible Light
Length of Day
Tomorrow will be .
, % of the Moon is Illuminated

Today's Extremes

State Highs State Lows

Community

WunderPhotos

Upload Photos

1,842,750 photos uploaded!

WunderBlogs® & News

Nearby

Air Quality

  Air Quality AQ Index Pollutant
Not available.

Snow Depth

Station Depth Elevation

Earthquake Activity

City Distance Mag. Time & Date
Minimum magnitude displayed is 2.5.

Coastal Water Temperatures

Place Temperature

Stations

Nearby Weather Stations

Station Location Temp. Windchill Dew Point Humidity Wind Precip. Elev Updated Type